Time;durP1;ratioP1;P1;durP2;ratioP2;P2;SDS_P1;SDS_P2;PMS_P1;PMS_P2;Temp;Humidity;BMP_temperature;BMP_pressure;BME280_temperature;BME280_humidity;BME280_pressure;Samples;Min_cycle;Max_cycle;Signal;HPM_P1;HPM_P2
2022/04/25 00:00:06;;;;;;;1.55;1.45;;;8.70;99.90;;;;;;4999585;28;20124;-76
2022/04/25 00:02:31;;;;;;;1.40;1.30;;;8.70;99.90;;;;;;5004227;28;20424;-76
2022/04/25 00:04:57;;;;;;;2.20;1.80;;;8.70;99.90;;;;;;5006410;28;20026;-76
2022/04/25 00:07:23;;;;;;;1.90;1.52;;;8.70;99.90;;;;;;5006571;28;20038;-76
2022/04/25 00:09:49;;;;;;;1.85;1.75;;;8.70;99.90;;;;;;5003209;28;20437;-76
2022/04/25 00:12:15;;;;;;;2.30;2.10;;;8.70;99.90;;;;;;5005122;28;20108;-76
2022/04/25 00:14:41;;;;;;;1.55;1.45;;;8.70;99.90;;;;;;5006712;28;20385;-74
2022/04/25 00:17:07;;;;;;;1.88;1.77;;;8.70;99.90;;;;;;5004915;28;20568;-75
2022/04/25 00:19:32;;;;;;;3.75;2.28;;;8.70;99.90;;;;;;5002521;28;20038;-75
2022/04/25 00:21:58;;;;;;;2.25;2.03;;;8.70;99.90;;;;;;5004566;28;20117;-75
2022/04/25 00:24:24;;;;;;;2.70;1.40;;;8.70;99.90;;;;;;5009232;28;20119;-76
2022/04/25 00:26:54;;;;;;;1.77;1.67;;;8.70;99.90;;;;;;5002230;28;20112;-76
2022/04/25 00:29:20;;;;;;;1.95;1.77;;;8.70;99.90;;;;;;5019043;28;20192;-76
2022/04/25 00:31:45;;;;;;;2.15;2.03;;;8.70;99.90;;;;;;5002288;28;20460;-76
2022/04/25 00:34:11;;;;;;;1.58;1.50;;;8.70;99.90;;;;;;5001351;28;20537;-75
2022/04/25 00:36:36;;;;;;;1.58;1.42;;;8.70;99.90;;;;;;5002721;28;20152;-76
2022/04/25 00:39:02;;;;;;;1.80;1.70;;;8.70;99.90;;;;;;5005474;28;20042;-76
2022/04/25 00:41:29;;;;;;;1.95;1.77;;;8.70;99.90;;;;;;5004267;28;20033;-75
2022/04/25 00:43:56;;;;;;;1.92;1.83;;;8.70;99.90;;;;;;5002995;28;20076;-76
2022/04/25 00:46:24;;;;;;;2.20;2.00;;;8.70;99.90;;;;;;4998609;28;20229;-75
2022/04/25 00:48:50;;;;;;;1.90;1.80;;;8.70;99.90;;;;;;5005424;28;20034;-75
2022/04/25 00:51:17;;;;;;;1.60;1.50;;;8.70;99.90;;;;;;5006359;28;20037;-76
2022/04/25 00:53:44;;;;;;;1.77;1.67;;;8.70;99.90;;;;;;5002908;28;20042;-76
2022/04/25 00:56:12;;;;;;;1.60;1.50;;;8.70;99.90;;;;;;5005817;28;20025;-76
2022/04/25 00:58:37;;;;;;;2.13;1.92;;;8.70;99.90;;;;;;5002570;28;20022;-76
2022/04/25 01:01:03;;;;;;;1.77;1.67;;;8.70;99.90;;;;;;5001785;28;20508;-76
2022/04/25 01:03:29;;;;;;;1.77;1.67;;;8.70;99.90;;;;;;5002763;28;20088;-76
2022/04/25 01:05:54;;;;;;;2.20;2.00;;;8.70;99.90;;;;;;5002241;28;20036;-76
2022/04/25 01:08:20;;;;;;;1.30;1.20;;;8.70;99.90;;;;;;5006011;28;20046;-76
2022/04/25 01:10:46;;;;;;;1.70;1.60;;;8.70;99.90;;;;;;4999653;28;20580;-76
2022/04/25 01:13:12;;;;;;;1.70;1.60;;;8.70;99.90;;;;;;5006629;28;20624;-76
2022/04/25 01:15:38;;;;;;;4.40;1.90;;;8.70;99.90;;;;;;5004387;28;20040;-76
2022/04/25 01:18:04;;;;;;;1.73;1.63;;;8.70;99.90;;;;;;5003104;28;20461;-76
2022/04/25 01:20:30;;;;;;;1.88;1.77;;;8.70;99.90;;;;;;5003595;28;20056;-76
2022/04/25 01:28:39;;;;;;;2.60;2.08;;;8.70;99.90;;;;;;5006700;28;20511;-76
2022/04/25 01:31:05;;;;;;;2.85;2.33;;;8.70;99.90;;;;;;5000242;28;20042;-76
2022/04/25 01:33:31;;;;;;;2.22;2.03;;;8.70;99.90;;;;;;5005881;28;20080;-76
2022/04/25 01:35:57;;;;;;;2.50;2.13;;;8.70;99.90;;;;;;4998924;28;20557;-76
2022/04/25 01:38:22;;;;;;;2.33;2.13;;;8.70;99.90;;;;;;4998544;28;20477;-75
2022/04/25 01:40:48;;;;;;;2.30;2.10;;;8.70;99.90;;;;;;5001123;28;20036;-75
2022/04/25 01:43:14;;;;;;;2.60;2.20;;;8.70;99.90;;;;;;4996561;28;20061;-75
2022/04/25 01:45:40;;;;;;;2.72;2.20;;;8.70;99.90;;;;;;5001548;28;20040;-75
2022/04/25 01:48:06;;;;;;;2.58;2.38;;;8.70;99.90;;;;;;4998805;28;20062;-75
2022/04/25 01:50:32;;;;;;;2.58;2.30;;;8.70;99.90;;;;;;5000205;28;20038;-75
2022/04/25 01:52:57;;;;;;;2.35;2.20;;;8.70;99.90;;;;;;5004370;28;20092;-75
2022/04/25 01:55:23;;;;;;;2.55;2.20;;;8.70;99.90;;;;;;5001092;28;20385;-75
2022/04/25 01:57:49;;;;;;;3.60;1.95;;;8.70;99.90;;;;;;4996513;28;20104;-75
2022/04/25 02:00:15;;;;;;;2.42;2.22;;;8.70;99.90;;;;;;4998627;28;20550;-75
2022/04/25 02:02:40;;;;;;;2.60;2.40;;;8.70;99.90;;;;;;4991378;28;20086;-76
2022/04/25 02:05:07;;;;;;;3.47;2.78;;;8.70;99.90;;;;;;4976914;28;20026;-75
2022/04/25 02:07:33;;;;;;;2.97;2.67;;;8.70;99.90;;;;;;4995706;28;20034;-75
2022/04/25 02:09:58;;;;;;;3.67;2.50;;;8.70;99.90;;;;;;4999267;28;20036;-75
2022/04/25 02:12:24;;;;;;;2.30;2.10;;;8.70;99.90;;;;;;4999286;28;20042;-75
2022/04/25 02:14:50;;;;;;;2.45;2.25;;;8.70;99.90;;;;;;5006729;28;20091;-75
2022/04/25 02:17:16;;;;;;;3.65;2.42;;;8.70;99.90;;;;;;5000090;28;20032;-74
2022/04/25 02:19:44;;;;;;;2.97;2.65;;;8.70;99.90;;;;;;5005887;28;20057;-75
2022/04/25 02:22:11;;;;;;;3.20;2.90;;;8.70;99.90;;;;;;5007080;28;20088;-75
2022/04/25 02:24:40;;;;;;;2.95;2.47;;;8.70;99.90;;;;;;5006635;28;20457;-75
2022/04/25 02:27:06;;;;;;;3.33;2.92;;;8.70;99.90;;;;;;4998556;28;20033;-76
2022/04/25 02:29:41;;;;;;;4.32;2.58;;;8.70;99.90;;;;;;4999767;28;20434;-75
2022/04/25 02:32:07;;;;;;;3.50;3.00;;;8.70;99.90;;;;;;5006968;28;20042;-75
2022/04/25 02:34:33;;;;;;;4.10;2.80;;;8.70;99.90;;;;;;5003908;28;20065;-76
2022/04/25 02:36:59;;;;;;;5.00;3.53;;;8.70;99.90;;;;;;5005174;28;20076;-75
2022/04/25 02:39:25;;;;;;;3.63;2.97;;;8.70;99.90;;;;;;5005325;28;20042;-75
2022/04/25 02:41:51;;;;;;;3.88;3.30;;;8.70;99.90;;;;;;5003898;28;20438;-75
2022/04/25 02:44:17;;;;;;;3.95;3.33;;;8.70;99.90;;;;;;5000663;28;20073;-75
2022/04/25 02:46:43;;;;;;;3.60;2.80;;;8.70;99.90;;;;;;5000484;28;20034;-76
2022/04/25 02:49:09;;;;;;;4.38;3.10;;;8.70;99.90;;;;;;5008563;28;20116;-75
2022/04/25 02:51:34;;;;;;;4.30;3.70;;;8.70;99.90;;;;;;4999999;28;20089;-75
2022/04/25 02:54:00;;;;;;;3.47;3.17;;;8.70;99.90;;;;;;4998923;28;20035;-75
2022/04/25 02:56:26;;;;;;;5.25;3.55;;;8.70;99.90;;;;;;5001481;28;20037;-76
2022/04/25 02:58:51;;;;;;;4.88;3.58;;;8.70;99.90;;;;;;5003509;28;20494;-75
2022/04/25 03:01:17;;;;;;;3.30;3.00;;;8.70;99.90;;;;;;5008927;28;20052;-76
2022/04/25 03:03:42;;;;;;;4.38;3.38;;;8.70;99.90;;;;;;5004306;28;20026;-76
2022/04/25 03:06:09;;;;;;;4.13;3.33;;;8.70;99.90;;;;;;5001292;28;20777;-75
2022/04/25 03:08:36;;;;;;;4.75;3.40;;;8.70;99.90;;;;;;5002707;28;20487;-75
2022/04/25 03:11:06;;;;;;;5.55;3.50;;;8.70;99.90;;;;;;5005530;28;20397;-75
2022/04/25 03:13:34;;;;;;;4.72;4.10;;;8.70;99.90;;;;;;5004151;28;20037;-75
2022/04/25 03:15:59;;;;;;;4.45;3.33;;;8.70;99.90;;;;;;5001309;28;20168;-75
2022/04/25 03:18:25;;;;;;;4.63;3.40;;;8.70;99.90;;;;;;5004622;28;20113;-76
2022/04/25 03:20:51;;;;;;;5.75;4.00;;;8.70;99.90;;;;;;5002744;28;20061;-76
2022/04/25 03:23:21;;;;;;;4.47;3.50;;;8.70;99.90;;;;;;5000615;28;20072;-75
2022/04/25 03:25:48;;;;;;;4.43;3.30;;;8.70;99.90;;;;;;4997804;28;20050;-75
2022/04/25 03:28:15;;;;;;;5.57;3.97;;;8.80;99.90;;;;;;5003140;28;20394;-76
2022/04/25 03:30:41;;;;;;;6.43;3.55;;;8.80;99.90;;;;;;5008399;28;20121;-75
2022/04/25 03:33:08;;;;;;;5.15;3.90;;;8.80;99.90;;;;;;5007145;28;20129;-75
2022/04/25 03:35:34;;;;;;;7.05;3.60;;;8.80;99.90;;;;;;5002920;28;20572;-75
2022/04/25 03:38:00;;;;;;;3.95;3.20;;;8.80;99.90;;;;;;5002663;28;20037;-76
2022/04/25 03:40:25;;;;;;;5.50;3.58;;;8.80;99.90;;;;;;4997981;28;20041;-75
2022/04/25 03:42:53;;;;;;;4.47;3.88;;;8.80;99.90;;;;;;5004620;28;20058;-75
2022/04/25 03:45:18;;;;;;;4.22;3.42;;;8.80;99.90;;;;;;5001280;28;20361;-75
2022/04/25 03:47:45;;;;;;;5.03;3.85;;;8.80;99.90;;;;;;5000144;28;20043;-76
2022/04/25 03:50:13;;;;;;;4.70;3.78;;;8.80;99.90;;;;;;5000770;28;20097;-74
2022/04/25 03:52:42;;;;;;;4.60;3.70;;;8.80;99.90;;;;;;5001747;28;20041;-75
2022/04/25 03:57:54;;;;;;;6.38;3.85;;;8.80;99.90;;;;;;5003779;28;20821;-75
2022/04/25 04:00:20;;;;;;;4.88;4.10;;;8.80;99.90;;;;;;5006133;28;20042;-75
2022/04/25 04:02:46;;;;;;;6.53;4.65;;;8.80;99.90;;;;;;5002531;28;20042;-75
2022/04/25 04:05:12;;;;;;;6.13;5.00;;;8.80;99.90;;;;;;5006073;28;20439;-75
2022/04/25 04:07:38;;;;;;;5.22;4.43;;;8.80;99.90;;;;;;5004352;28;20042;-76
2022/04/25 04:10:05;;;;;;;6.53;5.10;;;8.80;99.90;;;;;;5000572;28;20623;-75
2022/04/25 04:12:31;;;;;;;9.27;6.20;;;8.80;99.90;;;;;;5005649;28;20037;-75
2022/04/25 04:14:58;;;;;;;10.13;5.15;;;8.80;99.90;;;;;;5005608;28;20042;-75
2022/04/25 04:17:24;;;;;;;6.25;4.78;;;8.80;99.90;;;;;;5003742;28;20605;-75
2022/04/25 04:19:53;;;;;;;10.32;5.60;;;8.80;99.90;;;;;;4995030;28;20053;-75
2022/04/25 04:22:20;;;;;;;;;;;8.80;99.90;;;;;;5004881;28;20048;-75
2022/04/25 04:24:46;;;;;;;7.90;4.93;;;8.80;99.90;;;;;;5003023;28;19914;-76
2022/04/25 04:27:14;;;;;;;9.20;5.90;;;8.80;99.90;;;;;;5004756;28;20033;-76
2022/04/25 04:29:40;;;;;;;;;;;8.80;99.90;;;;;;5002133;28;20049;-75
2022/04/25 04:32:06;;;;;;;10.30;5.75;;;8.80;99.90;;;;;;5001856;28;19917;-75
2022/04/25 04:34:36;;;;;;;8.32;5.68;;;8.90;99.90;;;;;;5002609;28;20042;-75
2022/04/25 04:37:02;;;;;;;10.18;6.13;;;8.80;99.90;;;;;;5007258;28;20460;-75
2022/04/25 04:39:29;;;;;;;11.45;6.03;;;8.80;99.90;;;;;;5005312;28;20034;-75
2022/04/25 04:41:54;;;;;;;11.40;6.70;;;8.90;99.90;;;;;;5005407;28;20481;-76
2022/04/25 04:44:20;;;;;;;12.18;6.78;;;8.90;99.90;;;;;;5005296;28;20108;-76
2022/04/25 04:46:47;;;;;;;13.00;6.90;;;8.90;99.90;;;;;;4998092;28;20041;-75
2022/04/25 04:49:12;;;;;;;11.07;6.55;;;8.90;99.90;;;;;;5003581;28;20023;-75
2022/04/25 04:51:38;;;;;;;11.85;7.97;;;8.90;99.90;;;;;;5003110;28;20076;-75
2022/04/25 04:54:04;;;;;;;13.00;8.00;;;8.90;99.90;;;;;;5000356;28;20084;-75
2022/04/25 04:56:29;;;;;;;11.73;7.25;;;8.90;99.90;;;;;;5003674;28;20084;-75
2022/04/25 04:58:56;;;;;;;11.10;7.20;;;8.90;99.90;;;;;;5005404;28;20152;-76
2022/04/25 05:01:21;;;;;;;12.93;7.28;;;8.90;99.90;;;;;;5000651;28;20037;-76
2022/04/25 05:03:47;;;;;;;13.10;7.78;;;8.90;99.90;;;;;;5004865;28;20036;-75
2022/04/25 05:06:13;;;;;;;13.88;8.00;;;8.90;99.90;;;;;;5004891;28;20549;-75
2022/04/25 05:08:39;;;;;;;11.75;6.75;;;8.90;99.90;;;;;;5002256;28;20062;-75
2022/04/25 05:11:07;;;;;;;13.55;8.32;;;8.90;99.90;;;;;;4999752;28;20462;-75
2022/04/25 05:13:33;;;;;;;15.10;8.55;;;8.90;99.90;;;;;;5006879;28;20029;-75
2022/04/25 05:15:59;;;;;;;13.40;7.80;;;8.90;99.90;;;;;;5003129;28;20045;-74
2022/04/25 05:18:25;;;;;;;14.95;7.95;;;8.90;99.90;;;;;;5003270;28;20121;-75
2022/04/25 05:20:51;;;;;;;12.60;8.20;;;9.00;99.90;;;;;;5002422;28;20049;-77
2022/04/25 05:23:17;;;;;;;11.27;7.68;;;9.00;99.90;;;;;;5009627;28;20053;-75
2022/04/25 05:25:43;;;;;;;13.02;7.15;;;9.00;99.90;;;;;;5006392;28;20042;-75
2022/04/25 05:28:08;;;;;;;14.07;7.90;;;9.10;99.90;;;;;;5002787;28;20038;-75
2022/04/25 05:30:35;;;;;;;13.25;8.05;;;9.00;99.90;;;;;;5004605;28;20026;-76
2022/04/25 05:33:05;;;;;;;15.05;8.05;;;9.10;99.90;;;;;;4997365;28;20042;-75
2022/04/25 05:35:33;;;;;;;13.25;8.15;;;9.10;99.90;;;;;;4999905;28;20034;-75
2022/04/25 05:37:59;;;;;;;11.35;6.97;;;9.10;99.90;;;;;;5004125;28;20490;-75
2022/04/25 05:40:25;;;;;;;10.38;7.13;;;9.10;99.90;;;;;;4999157;28;20049;-76
2022/04/25 05:42:53;;;;;;;13.65;8.05;;;9.10;99.90;;;;;;5002904;28;20057;-75
2022/04/25 05:45:20;;;;;;;15.67;8.10;;;9.10;99.90;;;;;;5005137;28;20028;-76
2022/04/25 05:47:46;;;;;;;12.75;7.32;;;9.20;99.90;;;;;;5005303;28;20068;-75
2022/04/25 05:52:57;;;;;;;12.70;6.85;;;9.20;99.90;;;;;;5004881;28;20121;-75
2022/04/25 05:55:23;;;;;;;11.68;7.35;;;9.30;99.90;;;;;;5008199;28;20038;-76
2022/04/25 05:57:50;;;;;;;12.35;7.00;;;9.30;99.90;;;;;;5009200;28;20405;-75
2022/04/25 06:00:16;;;;;;;14.18;7.93;;;9.30;99.90;;;;;;5002747;28;20523;-75
2022/04/25 06:02:44;;;;;;;14.13;7.65;;;9.30;99.90;;;;;;5002136;28;20050;-76
2022/04/25 06:05:10;;;;;;;12.52;8.00;;;9.30;99.90;;;;;;4999006;28;20044;-76
2022/04/25 06:07:36;;;;;;;14.13;7.75;;;9.40;99.90;;;;;;5008899;28;20029;-75
2022/04/25 06:10:04;;;;;;;14.75;8.18;;;9.40;99.90;;;;;;5007655;28;20038;-76
2022/04/25 06:12:29;;;;;;;15.30;8.77;;;9.40;99.90;;;;;;4997399;28;20057;-75
2022/04/25 06:15:02;;;;;;;12.90;8.48;;;9.50;99.90;;;;;;5009079;28;20057;-75
2022/04/25 06:17:28;;;;;;;16.88;9.45;;;9.60;99.90;;;;;;5006157;28;20388;-76
2022/04/25 06:19:54;;;;;;;15.40;9.07;;;9.70;99.90;;;;;;5005559;28;20030;-76
2022/04/25 06:22:20;;;;;;;18.90;10.25;;;9.70;99.90;;;;;;5004465;28;20033;-76
2022/04/25 06:24:50;;;;;;;19.30;8.95;;;9.70;99.90;;;;;;5011798;28;20091;-75
2022/04/25 06:27:15;;;;;;;17.08;9.82;;;9.80;99.90;;;;;;5007909;28;20116;-76
2022/04/25 06:29:44;;;;;;;12.43;7.78;;;9.80;99.90;;;;;;5006265;28;20093;-75
2022/04/25 06:32:10;;;;;;;;;;;9.70;99.90;;;;;;5002622;28;20052;-75
2022/04/25 06:34:36;;;;;;;20.58;10.32;;;9.70;99.90;;;;;;5004540;28;19992;-76
2022/04/25 06:37:01;;;;;;;16.50;10.13;;;9.70;99.90;;;;;;5006973;28;20038;-75
2022/04/25 06:39:27;;;;;;;12.75;8.00;;;9.70;99.90;;;;;;5003774;28;20583;-75
2022/04/25 06:41:53;;;;;;;18.52;9.90;;;9.70;99.90;;;;;;5004160;28;20034;-75
2022/04/25 06:44:18;;;;;;;10.90;7.85;;;9.60;99.90;;;;;;5002913;28;20054;-76
2022/04/25 06:46:44;;;;;;;20.15;11.15;;;9.50;99.90;;;;;;4999026;28;20761;-76
2022/04/25 06:49:25;;;;;;;18.67;11.40;;;9.60;99.90;;;;;;5004443;28;20299;-76
2022/04/25 06:51:59;;;;;;;17.55;10.35;;;9.70;99.90;;;;;;5005038;28;20038;-76
2022/04/25 06:54:26;;;;;;;20.30;12.23;;;9.70;99.90;;;;;;5009717;28;20539;-76
2022/04/25 06:56:53;;;;;;;22.52;11.48;;;9.70;99.90;;;;;;5004720;28;20034;-76
2022/04/25 06:59:20;;;;;;;18.45;10.30;;;9.70;99.90;;;;;;5009743;28;20498;-76
2022/04/25 07:01:50;;;;;;;17.42;11.05;;;9.70;99.90;;;;;;5008140;28;20107;-76
2022/04/25 07:04:16;;;;;;;21.40;12.27;;;9.60;99.90;;;;;;5011657;28;20044;-76
2022/04/25 07:06:43;;;;;;;21.02;12.00;;;9.80;99.90;;;;;;5005217;28;20053;-77
2022/04/25 07:09:13;;;;;;;21.90;12.48;;;9.80;99.90;;;;;;5008936;28;20515;-76
2022/04/25 07:11:43;;;;;;;22.83;12.30;;;9.90;99.90;;;;;;5008682;28;20389;-75
2022/04/25 07:14:14;;;;;;;24.80;12.82;;;9.90;99.90;;;;;;5008064;28;20113;-75
2022/04/25 07:16:40;;;;;;;24.33;12.73;;;10.00;99.90;;;;;;5008635;28;22093;-75
2022/04/25 07:19:06;;;;;;;23.73;12.30;;;10.00;99.90;;;;;;5005762;28;20038;-75
2022/04/25 07:29:48;;;;;;;25.38;14.27;;;10.20;99.90;;;;;;5013497;28;20572;-76
2022/04/25 07:32:15;;;;;;;24.33;13.45;;;10.20;99.90;;;;;;5012331;28;20038;-76
2022/04/25 07:34:42;;;;;;;27.77;14.77;;;10.10;99.90;;;;;;5010708;28;20046;-75
2022/04/25 07:37:08;;;;;;;26.35;14.48;;;10.20;99.90;;;;;;5009772;28;20439;-75
2022/04/25 07:39:34;;;;;;;24.77;13.73;;;10.20;99.90;;;;;;5013026;28;20120;-75
2022/04/25 07:41:59;;;;;;;25.05;14.95;;;10.20;99.90;;;;;;5010496;28;20032;-76
2022/04/25 07:44:26;;;;;;;22.58;13.10;;;10.20;99.90;;;;;;5011784;28;20401;-76
2022/04/25 07:46:53;;;;;;;27.38;14.88;;;10.10;99.90;;;;;;5010144;28;20072;-76
2022/04/25 07:49:18;;;;;;;26.73;14.02;;;10.20;99.90;;;;;;5004223;28;20029;-77
2022/04/25 07:51:44;;;;;;;27.15;14.32;;;10.40;99.90;;;;;;5009177;28;20033;-76
2022/04/25 07:54:11;;;;;;;26.45;15.02;;;10.40;99.90;;;;;;5010585;28;20541;-76
2022/04/25 07:56:38;;;;;;;27.40;15.35;;;10.50;99.90;;;;;;5010434;28;20042;-76
2022/04/25 07:59:05;;;;;;;26.17;14.43;;;10.60;99.90;;;;;;5011402;28;20107;-76
2022/04/25 08:01:33;;;;;;;26.60;14.07;;;10.70;99.90;;;;;;5010813;28;20509;-75
2022/04/25 08:04:00;;;;;;;22.58;13.35;;;10.70;99.90;;;;;;5012064;28;20057;-75
2022/04/25 08:06:26;;;;;;;24.17;13.65;;;10.70;99.90;;;;;;5006100;28;20046;-75
2022/04/25 08:08:53;;;;;;;24.35;13.60;;;10.70;99.90;;;;;;5010537;28;20040;-75
2022/04/25 08:11:20;;;;;;;22.03;13.57;;;10.70;99.90;;;;;;5010977;28;20041;-76
2022/04/25 08:19:16;;;;;;;23.98;12.73;;;10.90;99.90;;;;;;5004498;28;20175;-76
2022/04/25 08:21:43;;;;;;;23.15;11.65;;;11.00;99.90;;;;;;5010133;28;20124;-76
2022/04/25 08:24:10;;;;;;;22.23;13.05;;;11.10;99.90;;;;;;5008950;28;20030;-75
2022/04/25 08:26:35;;;;;;;20.92;12.55;;;11.00;99.90;;;;;;5013062;28;20041;-75
2022/04/25 08:29:01;;;;;;;21.98;13.43;;;11.20;99.90;;;;;;5007626;28;20040;-76
2022/04/25 08:31:27;;;;;;;21.00;12.73;;;11.30;99.90;;;;;;5009754;28;20445;-76
2022/04/25 08:33:54;;;;;;;21.42;11.85;;;11.30;99.90;;;;;;5008514;28;20552;-76
2022/04/25 08:36:20;;;;;;;22.95;13.15;;;11.40;99.90;;;;;;5006940;28;20113;-76
2022/04/25 08:38:46;;;;;;;20.80;11.20;;;11.30;99.90;;;;;;5010061;28;20037;-76
2022/04/25 08:41:15;;;;;;;21.63;11.88;;;11.30;99.90;;;;;;5008379;28;20037;-76
2022/04/25 08:43:41;;;;;;;20.58;11.05;;;11.10;99.90;;;;;;5011346;28;20117;-76
2022/04/25 08:46:11;;;;;;;17.33;10.30;;;11.20;99.90;;;;;;5011919;28;20501;-77
2022/04/25 08:48:38;;;;;;;17.90;10.88;;;11.20;99.90;;;;;;5009895;28;20038;-76
2022/04/25 08:51:05;;;;;;;22.42;12.43;;;11.00;99.90;;;;;;5008948;28;20037;-76
2022/04/25 08:53:35;;;;;;;17.70;11.15;;;11.10;99.90;;;;;;5009924;28;20026;-76
2022/04/25 08:56:03;;;;;;;19.40;12.45;;;11.30;99.90;;;;;;5011246;28;20030;-76
2022/04/25 08:58:31;;;;;;;20.15;11.05;;;11.30;99.90;;;;;;5006358;28;20033;-76
2022/04/25 09:00:58;;;;;;;21.73;13.07;;;11.30;99.90;;;;;;5007265;28;20088;-76
2022/04/25 09:03:24;;;;;;;23.55;12.98;;;11.50;99.90;;;;;;5008757;28;20033;-76
2022/04/25 09:05:50;;;;;;;18.25;10.63;;;11.70;99.90;;;;;;5009098;28;20041;-76
2022/04/25 09:08:17;;;;;;;17.90;10.60;;;11.70;99.90;;;;;;5011874;28;20121;-76
2022/04/25 09:10:44;;;;;;;21.85;12.25;;;11.60;99.90;;;;;;5006600;28;20397;-76
2022/04/25 09:13:11;;;;;;;19.80;11.67;;;11.70;99.90;;;;;;5008973;28;20052;-75
2022/04/25 09:15:37;;;;;;;21.38;11.63;;;12.00;99.90;;;;;;5008971;28;20057;-76
2022/04/25 09:18:03;;;;;;;17.10;10.68;;;12.30;99.90;;;;;;5008549;28;20100;-76
2022/04/25 09:20:29;;;;;;;19.75;11.40;;;12.10;99.90;;;;;;5023040;28;20478;-76
2022/04/25 09:22:54;;;;;;;20.27;12.40;;;12.20;99.90;;;;;;5009681;28;20045;-76
2022/04/25 09:25:21;;;;;;;21.63;12.20;;;12.40;99.90;;;;;;5007912;28;20061;-76
2022/04/25 09:27:47;;;;;;;18.48;11.60;;;12.50;99.90;;;;;;5010819;28;20511;-76
2022/04/25 09:30:21;;;;;;;22.73;13.05;;;12.50;99.90;;;;;;5008826;28;20034;-76
2022/04/25 09:32:49;;;;;;;20.40;12.18;;;12.40;99.90;;;;;;5005931;28;20037;-76
2022/04/25 09:35:30;;;;;;;17.08;10.65;;;12.30;99.90;;;;;;5011696;28;20038;-77
2022/04/25 09:37:57;;;;;;;15.15;9.75;;;12.40;99.90;;;;;;5014648;28;20061;-76
2022/04/25 09:40:25;;;;;;;17.30;10.20;;;12.40;99.90;;;;;;5010232;28;20059;-75
2022/04/25 09:43:05;;;;;;;15.55;8.82;;;12.20;99.90;;;;;;5007183;28;20123;-76
2022/04/25 09:45:34;;;;;;;14.02;7.97;;;12.10;99.90;;;;;;5009218;28;20088;-76
2022/04/25 09:48:00;;;;;;;;;;;12.00;99.90;;;;;;5005928;28;20040;-76
2022/04/25 09:50:27;;;;;;;14.77;9.25;;;12.10;99.90;;;;;;5004558;28;19917;-76
2022/04/25 09:52:59;;;;;;;14.93;8.63;;;12.20;99.90;;;;;;5004796;28;20038;-76
2022/04/25 09:55:34;;;;;;;14.25;8.80;;;12.30;99.90;;;;;;5005571;28;20462;-76
2022/04/25 09:58:17;;;;;;;15.23;8.55;;;12.30;99.90;;;;;;5011747;28;20034;-76
2022/04/25 10:00:43;;;;;;;13.27;8.38;;;12.50;99.90;;;;;;5008665;28;20057;-76
2022/04/25 10:03:10;;;;;;;17.23;9.85;;;12.30;99.90;;;;;;5012211;28;20037;-76
2022/04/25 10:05:39;;;;;;;14.95;9.13;;;12.30;99.90;;;;;;5008599;28;20983;-76
2022/04/25 10:08:07;;;;;;;16.95;10.15;;;12.20;99.90;;;;;;5011686;28;20073;-76
2022/04/25 10:10:34;;;;;;;16.70;9.77;;;12.30;99.90;;;;;;5010446;28;20094;-76
2022/04/25 10:13:01;;;;;;;17.25;10.63;;;12.90;99.90;;;;;;5014214;28;20033;-76
2022/04/25 10:15:26;;;;;;;15.85;9.93;;;13.50;99.90;;;;;;5007302;28;20469;-76
2022/04/25 10:17:53;;;;;;;16.13;9.63;;;14.00;99.90;;;;;;5027318;28;20045;-77
2022/04/25 10:20:19;;;;;;;9.77;6.68;;;14.60;99.90;;;;;;5013552;28;20464;-76
2022/04/25 10:22:44;;;;;;;14.60;9.18;;;14.20;93.40;;;;;;5009441;28;20030;-77
2022/04/25 10:25:10;;;;;;;13.45;8.68;;;14.20;95.10;;;;;;5004488;28;20038;-77
2022/04/25 10:27:41;;;;;;;11.98;8.30;;;14.20;97.80;;;;;;5009010;28;20466;-76
2022/04/25 10:30:17;;;;;;;14.27;8.48;;;14.20;96.20;;;;;;5008796;28;20098;-76
2022/04/25 10:32:43;;;;;;;13.73;8.27;;;14.10;95.30;;;;;;5017583;28;20070;-77
2022/04/25 10:35:14;;;;;;;13.70;8.55;;;14.40;99.40;;;;;;5013254;28;20044;-77
2022/04/25 10:37:42;;;;;;;17.02;10.52;;;14.70;99.90;;;;;;5015127;28;20085;-77
2022/04/25 10:40:13;;;;;;;13.25;8.88;;;14.80;98.80;;;;;;5016662;28;20045;-77
2022/04/25 10:46:02;;;;;;;13.95;9.23;;;14.50;98.90;;;;;;5017630;28;20040;-77
2022/04/25 10:48:29;;;;;;;12.75;8.63;;;14.30;99.90;;;;;;5016533;28;20104;-77
2022/04/25 10:51:37;;;;;;;12.20;8.60;;;14.30;99.30;;;;;;5012157;28;20080;-77
2022/04/25 10:54:05;;;;;;;13.48;8.57;;;14.50;97.30;;;;;;5004134;28;20052;-77
2022/04/25 10:56:32;;;;;;;13.65;8.15;;;14.30;99.20;;;;;;5016191;28;20030;-77
2022/04/25 10:59:27;;;;;;;12.05;8.50;;;14.10;99.90;;;;;;5011215;28;20041;-76
2022/04/25 11:01:54;;;;;;;13.80;8.30;;;13.80;98.40;;;;;;5010141;28;20038;-76
2022/04/25 11:04:21;;;;;;;10.65;7.53;;;13.80;99.90;;;;;;5009086;28;20034;-77
2022/04/25 11:06:47;;;;;;;8.40;6.25;;;13.80;99.90;;;;;;5007018;28;20053;-77
2022/04/25 11:09:41;;;;;;;10.88;6.97;;;13.70;94.10;;;;;;5010580;28;20049;-76
2022/04/25 11:12:07;;;;;;;10.07;7.22;;;13.90;96.30;;;;;;5012096;28;20069;-77
2022/04/25 11:14:33;;;;;;;7.68;6.13;;;14.40;95.00;;;;;;5015905;28;20041;-77
2022/04/25 11:17:11;;;;;;;9.18;5.95;;;14.70;92.50;;;;;;5012134;28;20034;-76
2022/04/25 11:19:45;;;;;;;7.97;6.00;;;14.90;85.80;;;;;;5013314;28;20042;-76
2022/04/25 11:22:37;;;;;;;8.75;6.28;;;14.80;88.80;;;;;;5012260;28;20042;-76
2022/04/25 11:25:27;;;;;;;10.50;6.55;;;14.60;79.30;;;;;;5013442;28;20559;-76
2022/04/25 11:28:01;;;;;;;7.38;5.70;;;14.50;86.90;;;;;;5011988;28;20030;-76
2022/04/25 11:30:27;;;;;;;8.75;5.90;;;14.30;85.50;;;;;;5006267;28;20068;-76
2022/04/25 11:32:52;;;;;;;6.68;5.18;;;14.20;91.00;;;;;;5014438;28;20046;-77
2022/04/25 11:35:23;;;;;;;6.93;5.32;;;14.20;86.60;;;;;;5014809;28;20092;-77
2022/04/25 11:37:49;;;;;;;7.65;5.45;;;14.30;80.40;;;;;;5015716;28;20532;-76
2022/04/25 11:40:20;;;;;;;8.55;6.63;;;14.50;75.60;;;;;;5006720;28;20109;-77
2022/04/25 11:42:45;;;;;;;9.45;6.88;;;14.20;91.40;;;;;;5013020;28;21499;-77
2022/04/25 11:45:11;;;;;;;10.63;7.18;;;14.30;92.60;;;;;;5017886;28;20033;-77
2022/04/25 11:47:36;;;;;;;8.35;6.72;;;14.30;91.50;;;;;;5015335;28;20061;-76
2022/04/25 11:50:05;;;;;;;11.88;6.90;;;14.30;90.80;;;;;;5017979;28;20791;-76
2022/04/25 11:52:31;;;;;;;9.65;6.60;;;14.50;84.00;;;;;;5019004;28;20041;-78
2022/04/25 11:54:57;;;;;;;8.73;6.22;;;14.90;87.50;;;;;;5016716;28;20063;-76
2022/04/25 11:57:25;;;;;;;9.65;6.90;;;15.30;89.10;;;;;;5009784;28;20041;-76
2022/04/25 12:00:10;;;;;;;;;;;15.30;82.10;;;;;;5014245;28;20041;-75
2022/04/25 12:02:37;;;;;;;10.73;6.60;;;15.30;85.50;;;;;;5010715;28;19925;-76
2022/04/25 12:05:07;;;;;;;7.60;6.03;;;15.50;68.70;;;;;;5017575;28;20041;-77
2022/04/25 12:07:36;;;;;;;9.02;6.75;;;15.40;80.10;;;;;;5019429;28;20030;-76
2022/04/25 12:15:38;;;;;;;9.20;6.32;;;15.50;74.00;;;;;;5013269;28;20037;-76
2022/04/25 12:18:21;;;;;;;9.93;6.63;;;15.20;90.60;;;;;;5017943;28;20677;-76
2022/04/25 12:21:04;;;;;;;8.13;6.10;;;15.10;89.00;;;;;;5019777;28;20503;-77
2022/04/25 12:23:45;;;;;;;10.23;6.80;;;15.00;88.90;;;;;;5016717;28;20085;-77
2022/04/25 12:26:21;;;;;;;9.13;7.03;;;15.10;83.20;;;;;;5013228;28;20041;-77
2022/04/25 12:28:53;;;;;;;7.55;5.85;;;15.10;79.50;;;;;;5011624;28;20027;-77
2022/04/25 12:31:19;;;;;;;8.35;6.32;;;15.10;83.50;;;;;;5015722;28;20382;-76
2022/04/25 12:33:50;;;;;;;6.63;5.88;;;14.90;81.30;;;;;;5013360;28;20030;-77
2022/04/25 12:36:27;;;;;;;7.40;5.82;;;14.50;86.00;;;;;;5007883;28;20061;-76
2022/04/25 12:39:01;;;;;;;7.03;5.18;;;14.60;86.20;;;;;;5012761;28;20023;-76
2022/04/25 12:41:35;;;;;;;7.53;5.43;;;14.80;72.90;;;;;;5015888;28;20084;-76
2022/04/25 12:44:10;;;;;;;8.15;5.63;;;15.00;81.80;;;;;;5013273;28;20038;-76
2022/04/25 12:46:59;;;;;;;10.88;6.70;;;15.10;80.30;;;;;;5012037;28;20497;-76
2022/04/25 12:49:51;;;;;;;8.07;6.30;;;15.30;86.70;;;;;;5011579;28;20049;-77
2022/04/25 12:52:17;;;;;;;9.07;6.35;;;15.40;81.60;;;;;;5010345;28;20064;-76
2022/04/25 12:54:42;;;;;;;8.45;6.68;;;14.90;86.70;;;;;;5018474;28;20026;-76
2022/04/25 12:57:16;;;;;;;7.40;6.00;;;14.50;81.90;;;;;;5014259;28;20110;-76
2022/04/25 12:59:44;;;;;;;8.13;5.60;;;14.40;78.40;;;;;;5008129;28;20038;-77
2022/04/25 13:02:14;;;;;;;9.75;6.05;;;14.50;76.20;;;;;;5003233;28;20080;-76
2022/04/25 13:05:14;;;;;;;9.70;6.00;;;14.30;73.50;;;;;;5015608;28;20057;-76
2022/04/25 13:07:41;;;;;;;7.85;5.30;;;14.40;74.10;;;;;;5005017;28;20045;-76
2022/04/25 13:10:14;;;;;;;9.70;6.15;;;14.40;71.70;;;;;;5016749;28;20120;-77
2022/04/25 13:12:44;;;;;;;8.82;6.78;;;14.60;69.70;;;;;;5015976;28;20041;-76
2022/04/25 13:15:15;;;;;;;8.82;6.35;;;14.50;78.40;;;;;;5016324;28;20037;-76
2022/04/25 13:17:42;;;;;;;8.10;6.57;;;14.40;71.80;;;;;;5008875;28;20034;-77
2022/04/25 13:20:13;;;;;;;7.97;5.90;;;14.30;78.20;;;;;;5014393;28;20041;-76
2022/04/25 13:22:42;;;;;;;9.45;6.38;;;14.30;79.10;;;;;;5016235;28;20041;-76